Time;durP1;ratioP1;P1;durP2;ratioP2;P2;SDS_P1;SDS_P2;PMS_P1;PMS_P2;Temp;Humidity;BMP_temperature;BMP_pressure;BME280_temperature;BME280_humidity;BME280_pressure;Samples;Min_cycle;Max_cycle;Signal;HPM_P1;HPM_P2
2022/05/24 04:11:06;;;;;;;;;;;;;;;20.41;63.01;96098.34;4246257;27;10346;-70
2022/05/24 04:13:09;;;;;;;;;;;;;;;20.63;63.24;96095.38;4231502;27;5778;-69
2022/05/24 04:15:13;;;;;;;;;;;;;;;20.82;62.87;96095.56;4231622;28;6352;-70
2022/05/24 04:17:15;;;;;;;;;;;;;;;20.97;62.74;96092.00;4247673;27;5658;-70
2022/05/24 04:19:18;;;;;;;;;;;;;;;21.10;62.28;96091.41;4244582;27;5729;-70
2022/05/24 04:21:21;;;;;;;;;;;;;;;21.19;62.18;96101.31;4246994;27;5725;-71
2022/05/24 04:23:25;;;;;;;;;;;;;;;21.26;62.31;96101.00;4248405;27;5737;-71
2022/05/24 04:25:28;;;;;;;;;;;;;;;21.33;61.94;96098.84;4248196;27;6453;-71
2022/05/24 04:27:32;;;;;;;;;;;;;;;21.41;62.08;96116.28;4248390;27;5665;-70
2022/05/24 04:29:39;;;;;;;;;;;;;;;21.43;61.44;96128.34;4245566;27;5665;-71
2022/05/24 04:31:42;;;;;;;;;;;;;;;21.39;61.08;96127.28;4241161;27;5856;-69
2022/05/24 04:33:45;;;;;;;;;;;;;;;21.38;61.11;96123.00;4243325;27;5886;-70
2022/05/24 04:35:48;;;;;;;;;;;;;;;21.40;60.39;96131.56;4245342;27;5737;-70
2022/05/24 04:37:51;;;;;;;;;;;;;;;21.40;60.14;96131.56;4244669;27;5662;-72
2022/05/24 04:39:54;;;;;;;;;;;;;;;21.39;59.62;96139.91;4241093;27;5643;-71
2022/05/24 04:44:18;;;;;;;;;;;;;;;21.35;59.21;96145.06;4248296;27;5661;-70
2022/05/24 04:46:21;;;;;;;;;;;;;;;21.32;58.90;96150.19;4246145;27;5745;-72
2022/05/24 04:48:25;;;;;;;;;;;;;;;21.31;58.57;96148.59;4246752;27;5646;-71
2022/05/24 04:50:28;;;;;;;;;;;;;;;21.30;58.00;96147.78;4242658;27;5805;-71
2022/05/24 04:52:36;;;;;;;;;;;;;;;21.29;57.70;96146.16;4242650;27;5784;-76
2022/05/24 04:54:40;;;;;;;;;;;;;;;21.26;57.77;96149.41;4240750;27;5878;-75
2022/05/24 04:56:46;;;;;;;;;;;;;;;21.21;57.61;96160.97;4248121;27;5772;-77
2022/05/24 04:58:49;;;;;;;;;;;;;;;21.10;57.13;96164.78;4246920;27;5745;-76
2022/05/24 05:00:53;;;;;;;;;;;;;;;21.11;57.28;96165.56;4240222;27;5642;-76
2022/05/24 05:02:56;;;;;;;;;;;;;;;21.14;57.14;96175.78;4243293;27;5653;-76
2022/05/24 05:04:59;;;;;;;;;;;;;;;21.17;56.97;96192.13;4245695;27;5872;-76
2022/05/24 05:07:02;;;;;;;;;;;;;;;21.17;56.58;96194.03;4238761;27;5840;-76
2022/05/24 05:09:05;;;;;;;;;;;;;;;21.16;56.39;96208.53;4239568;27;5649;-76
2022/05/24 05:11:08;;;;;;;;;;;;;;;21.18;56.43;96209.91;4238604;27;5682;-75
2022/05/24 05:13:11;;;;;;;;;;;;;;;21.16;56.29;96211.22;4236277;28;5705;-75
2022/05/24 05:15:14;;;;;;;;;;;;;;;21.14;56.61;96211.50;4235997;27;5721;-75
2022/05/24 05:17:20;;;;;;;;;;;;;;;21.10;56.37;96205.09;4235366;27;5736;-75
2022/05/24 05:19:23;;;;;;;;;;;;;;;21.08;56.15;96215.31;4233335;28;5638;-75
2022/05/24 05:21:30;;;;;;;;;;;;;;;21.03;56.09;96218.00;4232082;27;5670;-77
2022/05/24 05:23:33;;;;;;;;;;;;;;;21.00;56.14;96221.25;4232486;27;5693;-76
2022/05/24 05:25:36;;;;;;;;;;;;;;;21.01;55.95;96212.09;4232570;28;5675;-76
2022/05/24 05:27:39;;;;;;;;;;;;;;;21.01;55.74;96222.03;4240893;27;5703;-76
2022/05/24 05:32:04;;;;;;;;;;;;;;;20.98;55.58;96228.78;4233858;28;5650;-77
2022/05/24 05:34:08;;;;;;;;;;;;;;;20.98;55.80;96236.03;4234098;27;5717;-77
2022/05/24 05:36:12;;;;;;;;;;;;;;;20.93;55.79;96231.44;4232874;27;5872;-76
2022/05/24 05:38:15;;;;;;;;;;;;;;;20.89;55.81;96222.34;4225136;27;5784;-76
2022/05/24 05:40:18;;;;;;;;;;;;;;;20.87;55.54;96217.25;4232653;28;5641;-76
2022/05/24 05:42:21;;;;;;;;;;;;;;;20.86;55.75;96221.00;4235884;28;5646;-76
2022/05/24 05:44:24;;;;;;;;;;;;;;;20.85;55.76;96230.16;4236301;27;5658;-76
2022/05/24 05:46:27;;;;;;;;;;;;;;;20.85;55.37;96232.84;4236218;27;5646;-76
2022/05/24 05:48:31;;;;;;;;;;;;;;;20.85;55.53;96238.22;4236568;27;5736;-76
2022/05/24 05:50:37;;;;;;;;;;;;;;;20.86;55.26;96239.00;4236338;27;5654;-76
2022/05/24 05:52:40;;;;;;;;;;;;;;;20.86;55.46;96242.50;4236323;27;5729;-76
2022/05/24 05:54:43;;;;;;;;;;;;;;;20.87;55.14;96251.38;4234984;27;5641;-76
2022/05/24 05:56:47;;;;;;;;;;;;;;;20.84;55.07;96247.34;4236437;28;5654;-76
2022/05/24 05:58:51;;;;;;;;;;;;;;;20.85;55.23;96248.94;4236347;28;5679;-76
2022/05/24 06:00:54;;;;;;;;;;;;;;;20.84;55.05;96263.47;4232375;27;5973;-76
2022/05/24 06:02:56;;;;;;;;;;;;;;;20.85;55.29;96259.69;4225809;28;5662;-77
2022/05/24 06:05:03;;;;;;;;;;;;;;;20.86;55.37;96257.81;4226959;27;5818;-76
2022/05/24 06:07:07;;;;;;;;;;;;;;;20.87;55.02;96267.47;4228736;27;5854;-70
2022/05/24 06:09:11;;;;;;;;;;;;;;;20.88;55.08;96275.25;4227949;27;5704;-71
2022/05/24 06:11:15;;;;;;;;;;;;;;;20.94;54.96;96263.41;4221469;28;5809;-72
2022/05/24 06:13:18;;;;;;;;;;;;;;;20.98;55.27;96270.97;4233245;28;5676;-72
2022/05/24 06:15:20;;;;;;;;;;;;;;;21.00;55.02;96271.50;4232601;27;6365;-71
2022/05/24 06:17:24;;;;;;;;;;;;;;;20.98;55.21;96282.50;4234305;27;5682;-72
2022/05/24 06:19:27;;;;;;;;;;;;;;;20.99;55.32;96288.69;4235929;27;5642;-72
2022/05/24 06:21:33;;;;;;;;;;;;;;;20.98;55.02;96297.84;4235616;28;5661;-72
2022/05/24 06:23:38;;;;;;;;;;;;;;;20.96;55.51;96308.03;4234138;27;5658;-74
2022/05/24 06:25:42;;;;;;;;;;;;;;;21.00;55.49;96304.53;4228353;27;5675;-72
2022/05/24 06:27:45;;;;;;;;;;;;;;;20.96;55.33;96302.66;4230007;28;5662;-73
2022/05/24 06:29:48;;;;;;;;;;;;;;;20.91;55.15;96300.78;4235233;27;5638;-72
2022/05/24 06:31:51;;;;;;;;;;;;;;;20.89;55.23;96303.75;4230957;27;5658;-73
2022/05/24 06:33:55;;;;;;;;;;;;;;;20.87;55.30;96305.91;4234099;27;5693;-73
2022/05/24 06:36:02;;;;;;;;;;;;;;;20.85;55.13;96302.69;4234650;28;5759;-72
2022/05/24 06:38:06;;;;;;;;;;;;;;;20.86;55.35;96296.22;4231572;28;5676;-73
2022/05/24 06:40:13;;;;;;;;;;;;;;;20.89;54.94;96303.75;4223833;28;5657;-72
2022/05/24 06:42:17;;;;;;;;;;;;;;;20.89;55.18;96297.56;4235140;27;5666;-72
2022/05/24 06:44:20;;;;;;;;;;;;;;;20.88;54.89;96301.31;4231977;27;5671;-72
2022/05/24 06:46:23;;;;;;;;;;;;;;;20.86;54.78;96304.28;4218422;28;5738;-72
2022/05/24 06:48:28;;;;;;;;;;;;;;;20.85;54.89;96297.31;4231276;28;5710;-72
2022/05/24 06:50:31;;;;;;;;;;;;;;;20.85;54.68;96299.19;4231300;27;5657;-72
2022/05/24 06:52:34;;;;;;;;;;;;;;;20.78;54.80;96312.06;4234315;27;5662;-72
2022/05/24 06:54:38;;;;;;;;;;;;;;;20.65;55.06;96316.13;4234951;27;5634;-72
2022/05/24 06:56:42;;;;;;;;;;;;;;;20.66;55.05;96309.66;4233472;27;5646;-72
2022/05/24 06:58:45;;;;;;;;;;;;;;;20.66;55.09;96306.19;4218094;28;5674;-74
2022/05/24 07:03:10;;;;;;;;;;;;;;;20.67;55.33;96313.16;4233198;27;5752;-72
2022/05/24 07:05:16;;;;;;;;;;;;;;;20.64;54.98;96323.38;4225716;27;5801;-72
2022/05/24 07:07:19;;;;;;;;;;;;;;;20.64;55.15;96327.94;4230728;28;5737;-72
2022/05/24 07:09:23;;;;;;;;;;;;;;;20.64;55.16;96326.06;4224200;28;5706;-72
2022/05/24 07:11:27;;;;;;;;;;;;;;;20.69;55.10;96329.81;4218223;28;5679;-72
2022/05/24 07:13:31;;;;;;;;;;;;;;;20.73;55.08;96334.38;4217206;27;5860;-72
2022/05/24 07:15:35;;;;;;;;;;;;;;;20.80;54.96;96332.22;4224311;28;5649;-72
2022/05/24 07:17:38;;;;;;;;;;;;;;;20.86;54.74;96338.41;4234202;27;6303;-72
2022/05/24 07:19:41;;;;;;;;;;;;;;;20.88;54.39;96329.00;4234804;28;5725;-71
2022/05/24 07:21:44;;;;;;;;;;;;;;;20.92;54.34;96327.38;4234151;27;5809;-72
2022/05/24 07:23:47;;;;;;;;;;;;;;;20.98;54.18;96338.13;4227738;27;5785;-71
2022/05/24 07:25:51;;;;;;;;;;;;;;;20.99;53.92;96347.81;4218068;28;5683;-72
2022/05/24 07:27:57;;;;;;;;;;;;;;;21.01;54.04;96353.72;4219634;27;5695;-72
2022/05/24 07:30:01;;;;;;;;;;;;;;;20.99;54.13;96350.50;4234602;27;5650;-71
2022/05/24 07:32:06;;;;;;;;;;;;;;;21.01;54.05;96345.66;4233100;27;5722;-71
2022/05/24 07:34:09;;;;;;;;;;;;;;;20.98;54.09;96351.56;4217424;28;5668;-71
2022/05/24 07:36:13;;;;;;;;;;;;;;;20.92;53.99;96351.56;4228333;28;5649;-71
2022/05/24 07:38:16;;;;;;;;;;;;;;;20.85;54.43;96356.41;4234609;27;6400;-71
2022/05/24 07:47:24;;;;;;;;;;;;;;;20.93;54.21;96371.97;4226871;27;6123;-71
2022/05/24 07:49:28;;;;;;;;;;;;;;;20.91;54.17;96376.00;4222471;27;5692;-71
2022/05/24 07:51:32;;;;;;;;;;;;;;;20.91;54.12;96386.75;4231694;28;5662;-71
2022/05/24 07:53:36;;;;;;;;;;;;;;;20.88;54.18;96377.34;4234492;27;5649;-72
2022/05/24 07:55:39;;;;;;;;;;;;;;;20.87;54.00;96388.38;4233652;28;5752;-72
2022/05/24 07:57:42;;;;;;;;;;;;;;;20.82;54.31;96375.72;4234440;27;5755;-71
2022/05/24 07:59:47;;;;;;;;;;;;;;;20.83;54.20;96382.72;4218962;27;5761;-71
2022/05/24 08:01:52;;;;;;;;;;;;;;;20.86;54.30;96368.78;4230146;28;5646;-71
2022/05/24 08:03:55;;;;;;;;;;;;;;;20.90;53.97;96377.09;4230313;27;5697;-71
2022/05/24 08:05:59;;;;;;;;;;;;;;;20.90;53.92;96369.84;4230021;28;5864;-71
2022/05/24 08:08:02;;;;;;;;;;;;;;;20.94;53.86;96359.34;4221370;28;5680;-72
2022/05/24 08:10:07;;;;;;;;;;;;;;;20.97;54.04;96366.88;4229330;27;5821;-72
2022/05/24 08:12:18;;;;;;;;;;;;;;;20.97;53.95;96364.19;4227358;28;5646;-72
2022/05/24 08:14:21;;;;;;;;;;;;;;;20.98;54.15;96365.00;4223761;27;5675;-72
2022/05/24 08:16:25;;;;;;;;;;;;;;;20.95;53.92;96371.69;4230590;28;5740;-72
2022/05/24 08:18:30;;;;;;;;;;;;;;;20.91;54.32;96367.94;4233871;28;6110;-72
2022/05/24 08:20:34;;;;;;;;;;;;;;;20.92;54.09;96374.94;4234552;28;5638;-72
2022/05/24 08:22:38;;;;;;;;;;;;;;;20.93;53.79;96374.66;4234135;28;6303;-72
2022/05/24 08:24:40;;;;;;;;;;;;;;;20.97;53.63;96383.00;4234745;28;5670;-72
2022/05/24 08:26:44;;;;;;;;;;;;;;;20.99;53.85;96380.06;4233214;28;5727;-72
2022/05/24 08:28:47;;;;;;;;;;;;;;;21.02;53.35;96376.81;4231604;27;6497;-71
2022/05/24 08:30:53;;;;;;;;;;;;;;;21.08;53.51;96386.50;4225622;28;5662;-72
2022/05/24 08:33:04;;;;;;;;;;;;;;;21.10;53.50;96378.97;4231096;27;5641;-72
2022/05/24 08:35:12;;;;;;;;;;;;;;;21.10;53.22;96373.59;4233216;28;6151;-72
2022/05/24 08:37:15;;;;;;;;;;;;;;;21.13;53.34;96375.72;4234302;28;5674;-72
2022/05/24 08:39:19;;;;;;;;;;;;;;;21.13;53.07;96376.53;4234230;27;5766;-72
2022/05/24 08:41:28;;;;;;;;;;;;;;;21.13;53.00;96384.59;4234273;28;5674;-72
2022/05/24 08:43:46;;;;;;;;;;;;;;;21.12;53.21;96392.94;4233477;28;6339;-72
2022/05/24 08:48:22;;;;;;;;;;;;;;;21.14;53.34;96391.59;4236381;28;5651;-72
2022/05/24 08:50:30;;;;;;;;;;;;;;;21.13;53.15;96386.50;4220448;28;6392;-72
2022/05/24 08:52:39;;;;;;;;;;;;;;;21.10;53.01;96387.03;4224283;27;5936;-72
2022/05/24 08:54:45;;;;;;;;;;;;;;;21.13;52.96;96391.84;4237365;28;5646;-72
2022/05/24 08:56:52;;;;;;;;;;;;;;;21.15;53.05;96392.41;4220757;28;6333;-72
2022/05/24 08:59:02;;;;;;;;;;;;;;;21.15;52.89;96381.63;4220338;28;5901;-72
2022/05/24 09:01:07;;;;;;;;;;;;;;;21.14;52.77;96380.84;4226772;28;5736;-72
2022/05/24 09:03:11;;;;;;;;;;;;;;;21.14;52.76;96385.41;4229752;27;5646;-72
2022/05/24 09:05:19;;;;;;;;;;;;;;;21.15;52.64;96390.50;4237156;28;5733;-72
2022/05/24 09:07:33;;;;;;;;;;;;;;;21.17;52.45;96391.03;4232339;27;6343;-72
2022/05/24 09:09:48;;;;;;;;;;;;;;;21.14;52.52;96390.78;4229449;28;5721;-71
2022/05/24 09:12:05;;;;;;;;;;;;;;;21.08;52.08;96386.50;4227483;28;6471;-72
2022/05/24 09:14:12;;;;;;;;;;;;;;;21.02;52.07;96382.19;4225264;28;5649;-73
2022/05/24 09:16:17;;;;;;;;;;;;;;;20.99;52.16;96388.13;4231822;27;6477;-72
2022/05/24 09:18:31;;;;;;;;;;;;;;;20.99;52.39;96393.47;4229228;28;5658;-73
2022/05/24 09:20:38;;;;;;;;;;;;;;;20.98;52.23;96384.63;4237238;28;5745;-73
2022/05/24 09:22:43;;;;;;;;;;;;;;;21.01;52.07;96388.66;4236683;27;5646;-73
2022/05/24 09:24:50;;;;;;;;;;;;;;;21.02;51.92;96387.56;4241758;27;6401;-73
2022/05/24 09:27:07;;;;;;;;;;;;;;;21.06;51.86;96389.44;4221999;27;5671;-73
2022/05/24 09:29:14;;;;;;;;;;;;;;;21.07;51.51;96388.38;4219901;28;5679;-72
2022/05/24 09:31:23;;;;;;;;;;;;;;;21.08;51.40;96391.88;4246227;27;6306;-73
2022/05/24 09:33:32;;;;;;;;;;;;;;;21.06;51.31;96383.25;4252166;27;5631;-70
2022/05/24 09:35:42;;;;;;;;;;;;;;;21.03;51.74;96395.34;4224501;27;5778;-71
2022/05/24 09:38:11;;;;;;;;;;;;;;;21.03;51.67;96395.34;4219607;28;5671;-71
2022/05/24 09:40:20;;;;;;;;;;;;;;;21.01;51.47;96394.81;4219842;28;5750;-71
2022/05/24 09:42:27;;;;;;;;;;;;;;;21.03;51.47;96389.19;4235501;27;5653;-71
2022/05/24 09:44:46;;;;;;;;;;;;;;;21.05;51.25;96392.41;4239440;27;5819;-71
2022/05/24 09:46:50;;;;;;;;;;;;;;;21.06;51.16;96384.06;4233383;28;5120;-72
2022/05/24 09:48:58;;;;;;;;;;;;;;;21.11;50.89;96385.94;4236294;27;5067;-71
2022/05/24 09:51:04;;;;;;;;;;;;;;;21.13;50.86;96379.22;4236643;27;5634;-73
2022/05/24 09:53:15;;;;;;;;;;;;;;;21.17;50.62;96384.84;4236695;28;5642;-72
2022/05/24 09:55:24;;;;;;;;;;;;;;;21.16;50.87;96384.06;4236133;28;5670;-73
2022/05/24 09:57:29;;;;;;;;;;;;;;;21.15;50.70;96381.63;4235199;28;5712;-71
2022/05/24 09:59:33;;;;;;;;;;;;;;;21.15;50.57;96382.44;4226928;27;5832;-71
2022/05/24 10:01:39;;;;;;;;;;;;;;;21.14;50.58;96385.41;4231763;27;5713;-73
2022/05/24 10:03:45;;;;;;;;;;;;;;;21.12;50.67;96388.38;4219251;28;5646;-71
2022/05/24 10:05:56;;;;;;;;;;;;;;;21.12;50.46;96387.56;4228377;28;5805;-71
2022/05/24 10:08:01;;;;;;;;;;;;;;;21.11;50.27;96377.88;4235648;27;5661;-71
2022/05/24 10:10:10;;;;;;;;;;;;;;;21.13;50.18;96389.19;4235607;28;5752;-71
2022/05/24 10:12:24;;;;;;;;;;;;;;;21.16;50.22;96394.00;4235299;28;5642;-71
2022/05/24 10:14:33;;;;;;;;;;;;;;;21.18;50.25;96397.25;4224398;27;5683;-71
2022/05/24 10:16:47;;;;;;;;;;;;;;;21.13;50.11;96392.66;4235094;28;5650;-70
2022/05/24 10:19:05;;;;;;;;;;;;;;;21.13;50.12;96406.09;4236018;28;5828;-71
2022/05/24 10:21:20;;;;;;;;;;;;;;;21.13;50.14;96395.34;4235731;27;5830;-71
2022/05/24 10:23:38;;;;;;;;;;;;;;;21.14;49.84;96398.84;4217278;28;5663;-71
2022/05/24 10:25:55;;;;;;;;;;;;;;;21.14;49.92;96391.59;4218801;28;5696;-71
2022/05/24 10:28:17;;;;;;;;;;;;;;;21.14;49.55;96386.22;4219022;28;5136;-71
2022/05/24 10:30:27;;;;;;;;;;;;;;;21.14;49.46;96394.28;4218678;28;5672;-71
2022/05/24 10:40:14;;;;;;;;;;;;;;;21.14;49.22;96388.91;4235381;28;5741;-71
2022/05/24 10:42:29;;;;;;;;;;;;;;;21.14;48.95;96386.22;4234185;27;5734;-71
2022/05/24 10:44:39;;;;;;;;;;;;;;;21.13;49.19;96389.19;4234589;27;6362;-71
2022/05/24 10:46:46;;;;;;;;;;;;;;;21.13;48.94;96383.78;4235407;27;5794;-71
2022/05/24 10:48:57;;;;;;;;;;;;;;;21.18;48.75;96378.44;4234289;28;5661;-71
2022/05/24 10:51:09;;;;;;;;;;;;;;;21.22;48.80;96379.50;4234145;27;5108;-71
2022/05/24 10:53:19;;;;;;;;;;;;;;;21.25;48.80;96381.63;4235414;27;6440;-71
2022/05/24 10:55:25;;;;;;;;;;;;;;;21.24;48.62;96382.72;4235102;27;5665;-71
2022/05/24 10:57:35;;;;;;;;;;;;;;;21.26;48.69;96385.16;4221470;27;5826;-71
2022/05/24 10:59:56;;;;;;;;;;;;;;;21.26;48.20;96383.28;4218263;28;5736;-71
2022/05/24 11:02:04;;;;;;;;;;;;;;;21.27;48.22;96384.06;4230814;28;5762;-71
2022/05/24 11:04:11;;;;;;;;;;;;;;;21.29;48.35;96380.03;4228270;28;5758;-71
2022/05/24 11:06:27;;;;;;;;;;;;;;;21.30;48.16;96389.75;4229922;28;5099;-71
2022/05/24 11:08:35;;;;;;;;;;;;;;;21.31;48.17;96385.97;4235125;27;5658;-71
2022/05/24 11:10:42;;;;;;;;;;;;;;;21.32;48.31;96384.09;4219917;28;5667;-71
2022/05/24 11:12:49;;;;;;;;;;;;;;;21.32;48.21;96376.03;4218434;28;5818;-72
2022/05/24 11:14:57;;;;;;;;;;;;;;;21.35;47.99;96376.28;4218067;28;5707;-71
2022/05/24 11:17:02;;;;;;;;;;;;;;;21.38;47.79;96391.06;4218035;28;5663;-71
2022/05/24 11:19:10;;;;;;;;;;;;;;;21.40;47.93;96381.63;4232076;28;5658;-72
2022/05/24 11:21:20;;;;;;;;;;;;;;;21.40;47.52;96381.63;4234918;27;5646;-71
2022/05/24 11:23:28;;;;;;;;;;;;;;;21.42;47.51;96382.19;4227206;27;5663;-71
2022/05/24 11:25:38;;;;;;;;;;;;;;;21.46;47.68;96383.25;4217275;27;6463;-66
2022/05/24 11:27:44;;;;;;;;;;;;;;;21.51;47.63;96377.03;4232473;27;5876;-67
2022/05/24 11:29:52;;;;;;;;;;;;;;;21.56;47.49;96378.94;4233987;27;5819;-67
2022/05/24 11:32:02;;;;;;;;;;;;;;;21.56;47.32;96370.88;4232309;28;5749;-67
2022/05/24 11:34:13;;;;;;;;;;;;;;;21.60;47.38;96372.72;4232006;28;5834;-67
2022/05/24 11:36:42;;;;;;;;;;;;;;;21.62;46.98;96378.63;4228684;27;5776;-67
2022/05/24 11:38:46;;;;;;;;;;;;;;;21.61;47.20;96378.91;4221377;28;5720;-67
2022/05/24 11:41:01;;;;;;;;;;;;;;;21.59;46.95;96376.50;4233855;28;5671;-67
2022/05/24 11:43:32;;;;;;;;;;;;;;;21.58;46.85;96374.09;4233125;27;6323;-67
2022/05/24 11:45:59;;;;;;;;;;;;;;;21.61;46.76;96370.84;4234061;28;5658;-67
2022/05/24 11:48:18;;;;;;;;;;;;;;;21.58;46.34;96371.38;4234522;28;5789;-67
2022/05/24 11:50:43;;;;;;;;;;;;;;;21.53;46.42;96363.34;4234042;28;5666;-67
2022/05/24 11:53:03;;;;;;;;;;;;;;;21.51;46.63;96363.59;4233824;27;5642;-67
2022/05/24 11:55:08;;;;;;;;;;;;;;;21.50;46.50;96360.09;4234435;27;5851;-67
2022/05/24 11:57:27;;;;;;;;;;;;;;;21.50;46.11;96370.84;4234373;27;5650;-67
2022/05/24 11:59:50;;;;;;;;;;;;;;;21.44;45.93;96366.59;4233328;28;5658;-67
2022/05/24 12:01:56;;;;;;;;;;;;;;;21.45;46.28;96370.06;4224102;28;5671;-67
2022/05/24 12:09:14;;;;;;;;;;;;;;;21.47;45.77;96357.97;4232404;28;5108;-67
2022/05/24 12:11:32;;;;;;;;;;;;;;;21.47;45.88;96355.28;4217356;28;5671;-67
2022/05/24 12:13:41;;;;;;;;;;;;;;;21.46;45.36;96356.34;4217700;28;6364;-68
2022/05/24 12:15:49;;;;;;;;;;;;;;;21.49;45.32;96357.69;4221128;27;5661;-68
2022/05/24 12:18:15;;;;;;;;;;;;;;;21.56;45.51;96360.91;4231136;28;5834;-68
2022/05/24 12:20:31;;;;;;;;;;;;;;;21.61;45.04;96357.38;4230811;27;5773;-68
2022/05/24 12:23:14;;;;;;;;;;;;;;;21.58;45.22;96350.69;4237416;27;5114;-67
2022/05/24 12:25:54;;;;;;;;;;;;;;;21.55;44.99;96359.31;4226419;27;5638;-68
2022/05/24 12:27:57;;;;;;;;;;;;;;;21.50;44.81;96353.91;4237597;27;6324;-68
2022/05/24 12:30:17;;;;;;;;;;;;;;;21.47;44.45;96355.28;4236942;27;6351;-68
2022/05/24 12:32:21;;;;;;;;;;;;;;;21.47;44.55;96351.78;4237079;27;5626;-69
2022/05/24 12:34:31;;;;;;;;;;;;;;;21.53;44.66;96361.47;4237500;27;5181;-68
2022/05/24 12:36:45;;;;;;;;;;;;;;;21.57;44.15;96361.72;4237670;28;5665;-68
2022/05/24 12:39:16;;;;;;;;;;;;;;;21.58;44.49;96364.13;4236781;28;5821;-68
2022/05/24 12:41:25;;;;;;;;;;;;;;;21.63;44.08;96363.28;4237981;27;5796;-69
2022/05/24 12:43:28;;;;;;;;;;;;;;;21.63;44.46;96376.75;4237010;27;5713;-68
2022/05/24 12:45:33;;;;;;;;;;;;;;;21.62;44.17;96369.75;4236915;27;5646;-68
2022/05/24 12:47:37;;;;;;;;;;;;;;;21.57;44.18;96369.78;4236984;27;5653;-68
2022/05/24 12:49:55;;;;;;;;;;;;;;;21.57;44.09;96367.09;4232550;27;5752;-68
2022/05/24 12:52:04;;;;;;;;;;;;;;;21.56;44.31;96365.47;4236914;27;5763;-76
2022/05/24 12:54:14;;;;;;;;;;;;;;;21.55;44.01;96371.94;4236718;27;5763;-78
2022/05/24 12:56:20;;;;;;;;;;;;;;;21.52;44.04;96359.84;4234257;28;5897;-78
2022/05/24 12:58:29;;;;;;;;;;;;;;;21.54;43.77;96359.56;4234975;28;5641;-79
2022/05/24 13:00:56;;;;;;;;;;;;;;;21.57;43.74;96362.53;4236360;27;5762;-78
2022/05/24 13:02:59;;;;;;;;;;;;;;;21.55;43.96;96353.13;4164620;28;6014;-79
2022/05/24 13:05:15;;;;;;;;;;;;;;;21.52;44.25;96359.84;4154336;28;6110;-79
2022/05/24 13:07:37;;;;;;;;;;;;;;;21.51;44.21;96356.34;4169994;28;6388;-79
2022/05/24 13:09:44;;;;;;;;;;;;;;;21.55;44.14;96348.53;4152858;28;5772;-78
2022/05/24 13:11:50;;;;;;;;;;;;;;;21.60;44.05;96355.78;4161815;28;6437;-78
2022/05/24 13:13:53;;;;;;;;;;;;;;;21.60;43.73;96353.09;4170113;28;5763;-79
2022/05/24 13:15:59;;;;;;;;;;;;;;;21.58;44.16;96336.44;4168736;28;6492;-78
2022/05/24 13:18:09;;;;;;;;;;;;;;;21.56;43.88;96333.22;4169656;28;5759;-78
2022/05/24 13:20:30;;;;;;;;;;;;;;;21.55;44.25;96331.59;4170240;28;5834;-78
2022/05/24 13:22:44;;;;;;;;;;;;;;;21.58;43.84;96328.34;4153614;28;5868;-78
2022/05/24 13:24:56;;;;;;;;;;;;;;;21.61;43.70;96331.28;4155660;28;5784;-79
2022/05/24 13:27:04;;;;;;;;;;;;;;;21.66;43.70;96325.09;4153100;28;5796;-78
2022/05/24 13:29:24;;;;;;;;;;;;;;;21.69;43.93;96328.03;4153168;28;5804;-79
2022/05/24 13:33:50;;;;;;;;;;;;;;;21.76;43.85;96327.75;4198275;28;5677;-78
2022/05/24 13:35:55;;;;;;;;;;;;;;;21.74;43.45;96328.00;4236757;28;5657;-77
2022/05/24 13:38:01;;;;;;;;;;;;;;;21.77;43.68;96324.78;4238071;28;5776;-78
2022/05/24 13:40:05;;;;;;;;;;;;;;;21.75;43.40;96326.97;4237168;27;5686;-78
2022/05/24 13:42:10;;;;;;;;;;;;;;;21.75;43.52;96320.78;4237709;28;6217;-77
2022/05/24 13:44:30;;;;;;;;;;;;;;;21.75;43.25;96324.28;4236652;27;5788;-77
2022/05/24 13:46:49;;;;;;;;;;;;;;;21.77;43.56;96318.59;4237574;28;5674;-77
2022/05/24 13:48:55;;;;;;;;;;;;;;;21.78;43.21;96315.63;4237512;28;5052;-78
2022/05/24 13:51:07;;;;;;;;;;;;;;;21.81;43.45;96322.34;4235781;27;5788;-77
2022/05/24 13:53:29;;;;;;;;;;;;;;;21.83;43.30;96322.06;4236918;27;5658;-78
2022/05/24 13:55:35;;;;;;;;;;;;;;;21.80;42.87;96315.34;4238206;27;5668;-78
2022/05/24 13:57:46;;;;;;;;;;;;;;;21.76;42.79;96314.31;4237631;28;5748;-78
2022/05/24 13:59:57;;;;;;;;;;;;;;;21.73;42.69;96314.84;4236726;28;5758;-78
2022/05/24 14:02:11;;;;;;;;;;;;;;;21.68;42.61;96315.69;4229526;28;5646;-78
2022/05/24 14:04:18;;;;;;;;;;;;;;;21.66;42.64;96311.66;4235750;28;5869;-78
2022/05/24 14:06:25;;;;;;;;;;;;;;;21.63;43.05;96306.81;4232068;28;5654;-77
2022/05/24 14:08:28;;;;;;;;;;;;;;;21.65;42.90;96313.53;4238916;28;5671;-78
2022/05/24 14:10:32;;;;;;;;;;;;;;;21.63;42.89;96315.72;4235802;28;5645;-78
2022/05/24 14:12:34;;;;;;;;;;;;;;;21.61;43.00;96312.47;4233141;27;5691;-78
2022/05/24 14:14:39;;;;;;;;;;;;;;;21.60;42.60;96318.13;4237999;27;5657;-78
2022/05/24 14:16:42;;;;;;;;;;;;;;;21.60;42.96;96315.44;4228554;28;5658;-78
2022/05/24 14:18:46;;;;;;;;;;;;;;;21.56;42.86;96317.06;4234169;27;6625;-78
2022/05/24 14:20:50;;;;;;;;;;;;;;;21.51;42.94;96316.00;4225088;28;5705;-78
2022/05/24 14:22:54;;;;;;;;;;;;;;;21.50;42.92;96327.03;4232519;27;6364;-77
2022/05/24 14:24:57;;;;;;;;;;;;;;;21.49;42.86;96312.78;4233250;28;5709;-77
2022/05/24 14:27:01;;;;;;;;;;;;;;;21.48;42.71;96319.22;4232822;27;5733;-78
2022/05/24 14:29:04;;;;;;;;;;;;;;;21.49;42.54;96320.84;4236196;28;5646;-78
2022/05/24 14:31:10;;;;;;;;;;;;;;;21.48;42.47;96315.75;4231635;27;5746;-78
2022/05/24 14:33:18;;;;;;;;;;;;;;;21.46;42.74;96316.03;4233144;28;5647;-67
2022/05/24 14:35:21;;;;;;;;;;;;;;;21.45;42.68;96321.69;4218729;28;5829;-68
2022/05/24 14:37:24;;;;;;;;;;;;;;;21.48;42.29;96316.53;4236056;27;5642;-68
2022/05/24 14:39:28;;;;;;;;;;;;;;;21.54;42.65;96316.53;4235275;28;5749;-67
2022/05/24 14:41:32;;;;;;;;;;;;;;;21.50;42.10;96314.38;4229574;28;6389;-68
2022/05/24 14:43:35;;;;;;;;;;;;;;;21.52;42.40;96324.91;4233785;28;5670;-68
2022/05/24 14:45:38;;;;;;;;;;;;;;;21.53;42.24;96323.00;4229173;28;5789;-68
2022/05/24 14:47:41;;;;;;;;;;;;;;;21.54;42.31;96324.63;4234736;28;5668;-67
2022/05/24 14:49:44;;;;;;;;;;;;;;;21.57;42.02;96324.06;4229376;28;5682;-67
2022/05/24 14:51:50;;;;;;;;;;;;;;;21.58;42.56;96315.72;4229225;27;5769;-67
2022/05/24 14:53:54;;;;;;;;;;;;;;;21.61;42.42;96320.53;4228976;28;5741;-69
2022/05/24 14:56:11;;;;;;;;;;;;;;;21.64;42.29;96321.91;4216571;28;5957;-69
2022/05/24 14:58:15;;;;;;;;;;;;;;;21.64;42.22;96319.22;4226981;28;7722;-69
2022/05/24 15:00:29;;;;;;;;;;;;;;;21.62;42.12;96316.75;4216955;28;6588;-69
2022/05/24 15:02:32;;;;;;;;;;;;;;;21.63;42.19;96307.66;4221847;28;5858;-69
2022/05/24 15:04:36;;;;;;;;;;;;;;;21.60;42.01;96302.78;4232207;27;5773;-69
2022/05/24 15:06:42;;;;;;;;;;;;;;;21.59;41.56;96309.25;4230033;28;5830;-69
2022/05/24 15:15:56;;;;;;;;;;;;;;;21.60;41.48;96302.00;4160070;28;5845;-69
2022/05/24 15:17:58;;;;;;;;;;;;;;;21.60;41.83;96308.16;4162807;28;5881;-69
2022/05/24 15:20:04;;;;;;;;;;;;;;;21.62;41.41;96299.81;4161921;28;5873;-69
2022/05/24 15:22:07;;;;;;;;;;;;;;;21.65;41.55;96302.78;4164495;28;5869;-68
2022/05/24 15:24:16;;;;;;;;;;;;;;;21.68;41.30;96296.84;4159761;28;6163;-68
2022/05/24 15:26:26;;;;;;;;;;;;;;;21.72;41.43;96305.16;4160847;28;5234;-69
2022/05/24 15:28:34;;;;;;;;;;;;;;;21.75;41.37;96304.63;4157105;28;5885;-69
2022/05/24 15:30:37;;;;;;;;;;;;;;;21.77;41.34;96311.34;4159634;28;5148;-69
2022/05/24 15:32:46;;;;;;;;;;;;;;;21.79;41.00;96305.69;4160940;28;5837;-69
2022/05/24 15:34:49;;;;;;;;;;;;;;;21.80;41.33;96299.22;4161941;28;5886;-69
2022/05/24 15:36:53;;;;;;;;;;;;;;;21.85;41.07;96301.88;4161823;28;5953;-69
2022/05/24 15:38:57;;;;;;;;;;;;;;;21.89;41.37;96305.63;4146205;28;5851;-69
2022/05/24 15:41:00;;;;;;;;;;;;;;;21.88;41.14;96309.41;4161670;28;5916;-73
2022/05/24 15:43:05;;;;;;;;;;;;;;;21.83;40.95;96304.03;4162638;28;6015;-72
2022/05/24 15:45:09;;;;;;;;;;;;;;;21.78;40.94;96304.88;4145735;28;5874;-72
2022/05/24 15:47:12;;;;;;;;;;;;;;;21.77;41.25;96305.97;4161748;28;5850;-72
2022/05/24 15:49:15;;;;;;;;;;;;;;;21.80;40.98;96301.91;4161134;28;5861;-83
2022/05/24 15:51:20;;;;;;;;;;;;;;;21.84;41.10;96297.56;4194370;27;5770;-86
2022/05/24 15:53:23;;;;;;;;;;;;;;;21.90;40.99;96301.88;4233704;28;5749;-73
2022/05/24 15:55:27;;;;;;;;;;;;;;;21.94;41.25;96302.09;4232987;27;5745;-77
2022/05/24 15:57:30;;;;;;;;;;;;;;;21.92;41.12;96310.47;4232953;27;5772;-74
2022/05/24 15:59:34;;;;;;;;;;;;;;;21.87;40.75;96302.41;4232862;28;5753;-79
2022/05/24 16:01:37;;;;;;;;;;;;;;;21.81;40.64;96303.50;4229077;27;5793;-77